Time;durP1;ratioP1;P1;durP2;ratioP2;P2;SDS_P1;SDS_P2;PMS_P1;PMS_P2;Temp;Humidity;BMP_temperature;BMP_pressure;BME280_temperature;BME280_humidity;BME280_pressure;Samples;Min_cycle;Max_cycle;Signal;HPM_P1;HPM_P2
2022/10/12 00:02:01;;;;;;;11.80;6.60;;;6.60;99.90;;;;;;5063784;28;20033;-76
2022/10/12 00:04:27;;;;;;;15.00;7.57;;;6.50;99.90;;;;;;5032481;28;20048;-76
2022/10/12 00:06:53;;;;;;;9.52;6.72;;;6.60;99.90;;;;;;5067587;28;20040;-76
2022/10/12 00:09:18;;;;;;;11.80;6.50;;;6.60;99.90;;;;;;5061361;28;20057;-76
2022/10/12 00:11:44;;;;;;;9.82;6.63;;;6.60;99.90;;;;;;5061252;28;20036;-76
2022/10/12 00:14:10;;;;;;;9.70;5.45;;;6.70;99.90;;;;;;5064252;28;20075;-76
2022/10/12 00:16:36;;;;;;;8.65;5.60;;;6.60;99.90;;;;;;5047258;28;20197;-75
2022/10/12 00:19:02;;;;;;;11.38;5.75;;;6.60;99.90;;;;;;5074883;28;20040;-76
2022/10/12 00:21:31;;;;;;;13.93;6.22;;;6.60;99.90;;;;;;5060832;28;20089;-75
2022/10/12 00:23:59;;;;;;;8.50;4.30;;;6.60;99.90;;;;;;5060125;28;20178;-76
2022/10/12 00:26:28;;;;;;;8.95;3.95;;;6.60;99.90;;;;;;5044094;28;20049;-76
2022/10/12 00:28:59;;;;;;;9.50;3.97;;;6.60;99.90;;;;;;5065572;28;20049;-75
2022/10/12 00:31:27;;;;;;;9.60;4.82;;;6.60;99.90;;;;;;5045257;28;20135;-76
2022/10/12 00:33:53;;;;;;;11.88;5.68;;;6.60;99.90;;;;;;5051785;28;20147;-76
2022/10/12 00:36:31;;;;;;;11.25;4.93;;;6.60;99.90;;;;;;5076205;28;20105;-75
2022/10/12 00:38:58;;;;;;;8.45;4.82;;;6.60;99.90;;;;;;5044376;28;20048;-76
2022/10/12 00:41:32;;;;;;;11.52;5.40;;;6.60;99.90;;;;;;5060228;28;20122;-76
2022/10/12 00:44:01;;;;;;;9.75;4.38;;;6.60;99.90;;;;;;5064208;28;20131;-76
2022/10/12 00:46:40;;;;;;;6.78;4.40;;;6.60;99.90;;;;;;5043694;28;20056;-76
2022/10/12 00:49:23;;;;;;;8.25;4.25;;;6.60;99.90;;;;;;5043536;28;20542;-76
2022/10/12 00:52:00;;;;;;;11.43;4.85;;;6.60;99.90;;;;;;5077754;28;20041;-76
2022/10/12 00:54:31;;;;;;;10.70;4.30;;;6.60;99.90;;;;;;5059167;28;20109;-76
2022/10/12 00:57:02;;;;;;;10.20;4.55;;;6.60;99.90;;;;;;5061945;28;20550;-76
2022/10/12 00:59:30;;;;;;;;;;;6.60;99.90;;;;;;5043817;28;20139;-76
2022/10/12 01:01:56;;;;;;;8.82;4.13;;;6.60;99.90;;;;;;5061739;28;19941;-76
2022/10/12 01:04:26;;;;;;;9.18;5.53;;;6.60;99.90;;;;;;5021438;28;20048;-76
2022/10/12 01:06:52;;;;;;;14.23;6.20;;;6.60;99.90;;;;;;5051634;28;20194;-77
2022/10/12 01:09:19;;;;;;;14.32;7.47;;;6.60;99.90;;;;;;5059036;28;20049;-76
2022/10/12 01:11:45;;;;;;;12.02;6.97;;;6.50;99.90;;;;;;5060445;28;20052;-69
2022/10/12 01:14:11;;;;;;;10.98;6.18;;;6.50;99.90;;;;;;5044427;28;20044;-69
2022/10/12 01:16:47;;;;;;;12.18;5.85;;;6.50;99.90;;;;;;5058150;28;20213;-69
2022/10/12 01:19:13;;;;;;;12.95;6.78;;;6.40;99.90;;;;;;5060943;28;20048;-69
2022/10/12 01:21:48;;;;;;;8.65;5.80;;;6.40;99.90;;;;;;5042594;28;20071;-69
2022/10/12 01:24:32;;;;;;;8.35;5.68;;;6.40;99.90;;;;;;5060935;28;20075;-69
2022/10/12 01:27:16;;;;;;;10.32;5.97;;;6.40;99.90;;;;;;5044329;28;20400;-69
2022/10/12 01:30:05;;;;;;;10.63;5.75;;;6.50;99.90;;;;;;5044831;28;20036;-69
2022/10/12 01:33:01;;;;;;;10.15;6.03;;;6.50;99.90;;;;;;5060720;28;20044;-69
2022/10/12 01:35:38;;;;;;;9.73;5.47;;;6.50;99.90;;;;;;5061735;28;20051;-69
2022/10/12 01:38:34;;;;;;;8.93;5.70;;;6.50;99.90;;;;;;5059887;28;20049;-69
2022/10/12 01:41:18;;;;;;;12.32;5.85;;;6.50;99.90;;;;;;5059818;28;20094;-69
2022/10/12 01:43:45;;;;;;;7.53;4.80;;;6.40;99.90;;;;;;5052655;28;20135;-69
2022/10/12 01:46:14;;;;;;;10.73;5.97;;;6.30;99.90;;;;;;5044910;28;20036;-69
2022/10/12 01:48:41;;;;;;;12.05;5.97;;;6.40;99.90;;;;;;5061628;28;20087;-69
2022/10/12 01:51:10;;;;;;;10.68;5.85;;;6.50;99.90;;;;;;5046002;28;20120;-69
2022/10/12 01:53:43;;;;;;;8.32;5.70;;;6.60;99.90;;;;;;5058110;28;20102;-69
2022/10/12 01:56:30;;;;;;;9.15;4.70;;;6.50;99.90;;;;;;5059459;28;20136;-69
2022/10/12 01:59:19;;;;;;;9.15;5.43;;;6.50;99.90;;;;;;5062758;28;20048;-69
2022/10/12 02:02:08;;;;;;;11.45;5.60;;;6.50;99.90;;;;;;5038572;28;20581;-69
2022/10/12 02:05:09;;;;;;;5.93;4.00;;;6.60;99.90;;;;;;5057601;28;20064;-69
2022/10/12 02:07:53;;;;;;;8.93;4.95;;;6.60;99.90;;;;;;5014195;28;20084;-69
2022/10/12 02:10:43;;;;;;;11.40;7.07;;;6.50;99.90;;;;;;5050523;28;20136;-69
2022/10/12 02:13:13;;;;;;;11.68;6.88;;;6.60;99.90;;;;;;5045981;28;20041;-69
2022/10/12 02:15:41;;;;;;;12.07;7.40;;;6.50;99.90;;;;;;5056322;28;20047;-70
2022/10/12 02:18:11;;;;;;;13.57;8.15;;;6.50;99.90;;;;;;5057215;28;20719;-69
2022/10/12 02:20:39;;;;;;;10.95;7.90;;;6.50;99.90;;;;;;5043216;28;20036;-69
2022/10/12 02:23:07;;;;;;;11.40;7.00;;;6.50;99.90;;;;;;5073402;28;20668;-69
2022/10/12 02:25:34;;;;;;;12.27;7.80;;;6.50;99.90;;;;;;5060628;28;20040;-69
2022/10/12 02:28:06;;;;;;;10.32;7.22;;;6.60;99.90;;;;;;5059317;28;20048;-69
2022/10/12 02:30:36;;;;;;;11.63;8.85;;;6.60;99.90;;;;;;5037404;28;20055;-69
2022/10/12 02:33:07;;;;;;;22.00;13.07;;;6.70;99.90;;;;;;5057540;28;20359;-69
2022/10/12 02:35:40;;;;;;;8.80;6.00;;;6.60;99.90;;;;;;5057587;28;20075;-70
2022/10/12 02:38:15;;;;;;;11.48;7.65;;;6.60;99.90;;;;;;5056926;28;20054;-69
2022/10/12 02:40:49;;;;;;;12.73;8.15;;;6.60;99.90;;;;;;5046195;28;20060;-69
2022/10/12 02:43:41;;;;;;;17.55;11.98;;;6.60;99.90;;;;;;5042738;28;20139;-69
2022/10/12 02:46:09;;;;;;;9.63;7.07;;;6.60;99.90;;;;;;5041711;28;20056;-69
2022/10/12 02:48:38;;;;;;;19.15;14.10;;;6.70;99.90;;;;;;5045578;28;20104;-70
2022/10/12 02:51:06;;;;;;;17.60;12.00;;;6.60;99.90;;;;;;5058519;28;20051;-69
2022/10/12 02:53:33;;;;;;;9.90;6.78;;;6.50;99.90;;;;;;5043955;28;20504;-69
2022/10/12 02:56:09;;;;;;;10.98;6.88;;;6.50;99.90;;;;;;5050693;28;20052;-69
2022/10/12 02:58:35;;;;;;;10.85;7.10;;;6.50;99.90;;;;;;5056676;28;20049;-69
2022/10/12 03:01:01;;;;;;;8.98;6.22;;;6.50;99.90;;;;;;5042167;28;20534;-70
2022/10/12 03:03:27;;;;;;;14.00;8.60;;;6.40;99.90;;;;;;5056476;28;20067;-69
2022/10/12 03:05:53;;;;;;;10.75;7.45;;;6.40;99.90;;;;;;5039312;28;20037;-69
2022/10/12 03:08:19;;;;;;;8.43;6.07;;;6.30;99.90;;;;;;5061144;28;20072;-69
2022/10/12 03:10:45;;;;;;;11.27;6.80;;;6.30;99.90;;;;;;5041965;28;20052;-69
2022/10/12 03:13:10;;;;;;;11.32;8.65;;;6.30;99.90;;;;;;5037767;28;20169;-69
2022/10/12 03:15:36;;;;;;;12.18;8.25;;;6.30;99.90;;;;;;5073057;28;20044;-69
2022/10/12 03:18:02;;;;;;;14.30;8.55;;;6.30;99.90;;;;;;5061629;28;20098;-69
2022/10/12 03:20:31;;;;;;;12.70;7.95;;;6.30;99.90;;;;;;5055144;28;20456;-70
2022/10/12 03:22:57;;;;;;;17.05;11.32;;;6.30;99.90;;;;;;5032329;28;20051;-69
2022/10/12 03:25:22;;;;;;;17.67;8.77;;;6.40;99.90;;;;;;5032371;28;20041;-69
2022/10/12 03:27:48;;;;;;;13.40;8.65;;;6.30;99.90;;;;;;5064044;28;20049;-69
2022/10/12 03:30:14;;;;;;;12.55;8.85;;;6.40;99.90;;;;;;5063219;28;20569;-69
2022/10/12 03:32:40;;;;;;;12.38;8.68;;;6.30;99.90;;;;;;5047295;28;20380;-69
2022/10/12 03:35:07;;;;;;;18.27;10.32;;;6.30;99.90;;;;;;5033553;28;20047;-69
2022/10/12 03:37:35;;;;;;;13.98;8.10;;;6.30;99.90;;;;;;5047047;28;20442;-70
2022/10/12 03:40:01;;;;;;;16.85;10.75;;;6.30;99.90;;;;;;5046702;28;20033;-69
2022/10/12 03:42:27;;;;;;;12.80;8.85;;;6.30;99.90;;;;;;5044636;28;20044;-69
2022/10/12 03:44:53;;;;;;;15.98;10.43;;;6.30;99.90;;;;;;5047300;28;20398;-69
2022/10/12 03:47:18;;;;;;;15.35;9.07;;;6.30;99.90;;;;;;5041022;28;20529;-69
2022/10/12 03:49:44;;;;;;;15.45;11.18;;;6.30;99.90;;;;;;5064503;28;20036;-76
2022/10/12 03:52:13;;;;;;;13.95;10.85;;;6.30;99.90;;;;;;5064329;28;20428;-77
2022/10/12 03:54:39;;;;;;;15.00;11.38;;;6.30;99.90;;;;;;5048601;28;20482;-76
2022/10/12 03:57:04;;;;;;;15.32;10.88;;;6.30;99.90;;;;;;5045592;28;20074;-76
2022/10/12 03:59:30;;;;;;;15.07;10.85;;;6.30;99.90;;;;;;5062741;28;20075;-76
2022/10/12 04:01:56;;;;;;;15.68;10.65;;;6.40;99.90;;;;;;5029578;28;20048;-76
2022/10/12 04:04:22;;;;;;;12.68;9.55;;;6.40;99.90;;;;;;5039492;28;20376;-76
2022/10/12 04:06:48;;;;;;;13.70;10.98;;;6.30;99.90;;;;;;5048724;28;20052;-76
2022/10/12 04:09:13;;;;;;;28.23;18.40;;;6.30;99.90;;;;;;5053911;28;20055;-76
2022/10/12 04:11:39;;;;;;;18.88;12.80;;;6.30;99.90;;;;;;5045508;28;20044;-76
2022/10/12 04:14:05;;;;;;;18.38;12.95;;;6.30;99.90;;;;;;5061850;28;20037;-76
2022/10/12 04:16:31;;;;;;;18.98;13.52;;;6.30;99.90;;;;;;5039708;28;20053;-76
2022/10/12 04:18:56;;;;;;;22.17;15.73;;;6.30;99.90;;;;;;5059492;28;20044;-76
2022/10/12 04:21:24;;;;;;;19.83;14.77;;;6.30;99.90;;;;;;5060520;28;20047;-76
2022/10/12 04:23:50;;;;;;;17.95;13.45;;;6.40;99.90;;;;;;5046519;28;20101;-77
2022/10/12 04:26:18;;;;;;;15.88;13.13;;;6.40;99.90;;;;;;5061633;28;20060;-69
2022/10/12 04:28:44;;;;;;;20.77;13.90;;;6.40;99.90;;;;;;5062941;28;20279;-69
2022/10/12 04:31:10;;;;;;;15.13;12.73;;;6.40;99.90;;;;;;5058456;28;20045;-69
2022/10/12 04:33:36;;;;;;;21.25;13.82;;;6.50;99.90;;;;;;5055204;28;21161;-69
2022/10/12 04:36:02;;;;;;;18.08;13.07;;;6.50;99.90;;;;;;5025807;28;20059;-69
2022/10/12 04:38:27;;;;;;;19.80;14.35;;;6.40;99.90;;;;;;5063136;28;20053;-69
2022/10/12 04:40:57;;;;;;;17.27;14.93;;;6.40;99.90;;;;;;5062573;28;20506;-70
2022/10/12 04:43:23;;;;;;;27.70;17.52;;;6.40;99.90;;;;;;5057325;28;20048;-70
2022/10/12 04:45:57;;;;;;;17.05;12.35;;;6.40;99.90;;;;;;5061976;28;20045;-76
2022/10/12 04:48:24;;;;;;;18.25;11.98;;;6.30;99.90;;;;;;5026102;28;20044;-76
2022/10/12 04:50:53;;;;;;;20.02;13.32;;;6.30;99.90;;;;;;5047931;28;20048;-76
2022/10/12 04:53:19;;;;;;;18.50;12.30;;;6.20;99.90;;;;;;5054709;28;20126;-77
2022/10/12 04:55:45;;;;;;;18.10;12.23;;;6.30;99.90;;;;;;5061423;28;20060;-76
2022/10/12 04:58:10;;;;;;;15.05;11.90;;;6.30;99.90;;;;;;5061719;28;20032;-75
2022/10/12 05:00:36;;;;;;;13.05;11.07;;;6.20;99.90;;;;;;5042656;28;20047;-76
2022/10/12 05:03:02;;;;;;;18.73;11.80;;;6.30;99.90;;;;;;5035655;28;20048;-76
2022/10/12 05:05:33;;;;;;;28.58;17.98;;;6.30;99.90;;;;;;5051850;28;20072;-76
2022/10/12 05:08:02;;;;;;;;;;;6.20;99.90;;;;;;5079038;28;20530;-76
2022/10/12 05:10:31;;;;;;;18.95;12.60;;;6.10;99.90;;;;;;5044680;28;19931;-75
2022/10/12 05:12:57;;;;;;;19.77;12.85;;;6.10;99.90;;;;;;5058934;28;20105;-76
2022/10/12 05:15:23;;;;;;;16.33;11.60;;;6.10;99.90;;;;;;5059180;28;20044;-76
2022/10/12 05:17:49;;;;;;;26.30;15.95;;;6.10;99.90;;;;;;5047927;28;20044;-76
2022/10/12 05:20:17;;;;;;;17.70;12.77;;;6.10;99.90;;;;;;5040549;28;20040;-76
2022/10/12 05:22:43;;;;;;;18.60;12.85;;;6.10;99.90;;;;;;5046127;28;20044;-76
2022/10/12 05:25:09;;;;;;;18.73;12.30;;;6.00;99.90;;;;;;5040057;28;20506;-77
2022/10/12 05:27:35;;;;;;;20.67;13.63;;;6.10;99.90;;;;;;5060953;28;20291;-76
2022/10/12 05:30:00;;;;;;;16.67;12.93;;;6.10;99.90;;;;;;5041502;28;20837;-76
2022/10/12 05:32:26;;;;;;;16.55;10.48;;;6.00;99.90;;;;;;5045019;28;20117;-76
2022/10/12 05:34:52;;;;;;;18.25;11.57;;;6.00;99.90;;;;;;5042689;28;20311;-76
2022/10/12 05:37:17;;;;;;;17.88;13.40;;;6.00;99.90;;;;;;5044581;28;20045;-76
2022/10/12 05:39:43;;;;;;;15.30;12.10;;;5.90;99.90;;;;;;5042492;28;20059;-75
2022/10/12 05:42:09;;;;;;;15.75;11.25;;;6.00;99.90;;;;;;5012151;28;20072;-76
2022/10/12 05:44:35;;;;;;;14.98;10.55;;;5.90;99.90;;;;;;5042698;28;20048;-76
2022/10/12 05:47:00;;;;;;;21.77;15.52;;;5.90;99.90;;;;;;5040834;28;20576;-76
2022/10/12 05:49:26;;;;;;;20.67;14.15;;;5.90;99.90;;;;;;5045184;28;20065;-75
2022/10/12 05:51:52;;;;;;;16.35;12.70;;;6.00;99.90;;;;;;5040166;28;20078;-75
2022/10/12 05:54:17;;;;;;;20.42;14.75;;;5.90;99.90;;;;;;5045920;28;20048;-75
2022/10/12 05:56:43;;;;;;;20.15;13.88;;;5.90;99.90;;;;;;5042485;28;20537;-75
2022/10/12 05:59:10;;;;;;;35.67;25.27;;;5.90;99.90;;;;;;5058896;28;20053;-75
2022/10/12 06:01:35;;;;;;;28.45;21.80;;;5.90;99.90;;;;;;5057714;28;20045;-73
2022/10/12 06:04:01;;;;;;;26.85;17.33;;;5.90;99.90;;;;;;5031757;28;20044;-74
2022/10/12 06:06:27;;;;;;;19.90;16.13;;;5.90;99.90;;;;;;5028489;28;20075;-74
2022/10/12 06:08:53;;;;;;;22.33;18.08;;;6.00;99.90;;;;;;5042985;28;20388;-70
2022/10/12 06:11:20;;;;;;;20.58;16.80;;;5.90;99.90;;;;;;5039244;28;20044;-71
2022/10/12 06:13:45;;;;;;;23.95;17.08;;;6.00;99.90;;;;;;5045520;28;20075;-70
2022/10/12 06:16:11;;;;;;;24.08;16.70;;;6.00;99.90;;;;;;5055848;28;20484;-71
2022/10/12 06:18:37;;;;;;;27.85;18.10;;;6.00;99.90;;;;;;5055105;28;20045;-71
2022/10/12 06:21:06;;;;;;;18.75;14.52;;;6.00;99.90;;;;;;5037915;28;20507;-70
2022/10/12 06:23:31;;;;;;;21.83;16.75;;;6.00;99.90;;;;;;5040950;28;20415;-71
2022/10/12 06:25:57;;;;;;;18.08;15.88;;;6.00;99.90;;;;;;5042602;28;20040;-71
2022/10/12 06:28:23;;;;;;;21.65;16.77;;;6.00;99.90;;;;;;5041442;28;20044;-70
2022/10/12 06:30:53;;;;;;;20.90;16.10;;;6.00;99.90;;;;;;5057454;28;20050;-71
2022/10/12 06:33:19;;;;;;;24.38;18.88;;;6.00;99.90;;;;;;5026074;28;20699;-73
2022/10/12 06:35:45;;;;;;;25.08;20.13;;;6.10;99.90;;;;;;5032495;28;20056;-74
2022/10/12 06:38:11;;;;;;;27.02;20.40;;;6.00;99.90;;;;;;5056258;28;20036;-76
2022/10/12 06:40:36;;;;;;;27.50;21.10;;;6.10;99.90;;;;;;5026818;28;20040;-75
2022/10/12 06:43:02;;;;;;;21.77;17.02;;;6.10;99.90;;;;;;5024074;28;20040;-76
2022/10/12 06:45:28;;;;;;;21.88;15.95;;;6.10;99.90;;;;;;5022875;28;20055;-78
2022/10/12 06:47:55;;;;;;;26.40;18.35;;;6.10;99.90;;;;;;5030617;28;20041;-78
2022/10/12 06:50:21;;;;;;;23.02;17.80;;;6.10;99.90;;;;;;5024275;28;20064;-75
2022/10/12 06:52:46;;;;;;;30.35;21.33;;;6.20;99.90;;;;;;5060746;28;20178;-76
2022/10/12 06:55:12;;;;;;;27.23;22.77;;;6.20;99.90;;;;;;5039030;28;20427;-76
2022/10/12 06:57:38;;;;;;;24.13;20.35;;;6.30;99.90;;;;;;5044163;28;20402;-77
2022/10/12 07:00:06;;;;;;;25.25;19.38;;;6.30;99.90;;;;;;5042119;28;20055;-76
2022/10/12 07:02:33;;;;;;;36.25;27.50;;;6.30;99.90;;;;;;5043287;28;20123;-76
2022/10/12 07:04:59;;;;;;;32.95;21.50;;;6.30;99.90;;;;;;5025320;28;20040;-76
2022/10/12 07:07:25;;;;;;;29.63;21.23;;;6.30;99.90;;;;;;5014312;28;20052;-76
2022/10/12 07:09:51;;;;;;;31.00;20.73;;;6.30;99.90;;;;;;5043083;28;20369;-76
2022/10/12 07:12:17;;;;;;;23.85;18.17;;;6.30;99.90;;;;;;5041667;28;20513;-77
2022/10/12 07:14:43;;;;;;;29.77;22.00;;;6.40;99.90;;;;;;5054444;28;20033;-77
2022/10/12 07:17:08;;;;;;;21.00;18.55;;;6.40;99.90;;;;;;5041668;28;20032;-77
2022/10/12 07:19:34;;;;;;;28.48;20.77;;;6.40;99.90;;;;;;5040437;28;20040;-76
2022/10/12 07:22:00;;;;;;;30.77;21.92;;;6.50;99.90;;;;;;5037799;28;20119;-75
2022/10/12 07:24:34;;;;;;;28.65;21.23;;;6.50;99.90;;;;;;5058950;28;20406;-75
2022/10/12 07:27:04;;;;;;;27.63;20.88;;;6.60;99.90;;;;;;5022963;28;20513;-75
2022/10/12 07:29:31;;;;;;;29.17;19.65;;;6.70;99.90;;;;;;5060301;28;20041;-77
2022/10/12 07:31:58;;;;;;;31.80;22.98;;;6.80;99.90;;;;;;5056205;28;20403;-77
2022/10/12 07:34:27;;;;;;;22.80;18.55;;;6.90;99.90;;;;;;5045301;28;20055;-77
2022/10/12 07:36:54;;;;;;;28.42;19.88;;;7.00;99.90;;;;;;5058151;28;20199;-77
2022/10/12 07:39:21;;;;;;;28.30;20.85;;;7.10;99.90;;;;;;5028726;28;20040;-76
2022/10/12 07:41:48;;;;;;;26.10;18.40;;;7.20;99.90;;;;;;5054853;28;20513;-77
2022/10/12 07:44:14;;;;;;;26.77;19.08;;;7.30;99.90;;;;;;5044282;28;20407;-77
2022/10/12 07:46:40;;;;;;;24.45;16.88;;;7.40;99.90;;;;;;5041923;28;20044;-77
2022/10/12 07:49:06;;;;;;;20.02;14.68;;;7.60;99.90;;;;;;5057264;28;20052;-77
2022/10/12 07:51:32;;;;;;;21.92;14.15;;;7.80;99.90;;;;;;5059688;28;20530;-77
2022/10/12 07:54:00;;;;;;;18.75;11.63;;;8.10;99.90;;;;;;5053659;28;20076;-77
2022/10/12 07:56:26;;;;;;;19.15;10.40;;;8.30;99.90;;;;;;5053912;28;20067;-77
2022/10/12 07:58:54;;;;;;;18.30;11.15;;;8.50;99.90;;;;;;5053398;28;20060;-77
2022/10/12 08:01:22;;;;;;;17.38;10.02;;;8.60;99.90;;;;;;5060206;28;20412;-77
2022/10/12 08:03:49;;;;;;;14.38;10.27;;;8.60;99.90;;;;;;5038723;28;20417;-76
2022/10/12 08:06:17;;;;;;;16.95;11.10;;;8.70;99.90;;;;;;5062207;28;20041;-78
2022/10/12 08:08:43;;;;;;;24.10;12.55;;;8.70;99.90;;;;;;5041238;28;20332;-77
2022/10/12 08:11:10;;;;;;;17.70;11.02;;;8.70;99.90;;;;;;5062355;28;20048;-77
2022/10/12 08:13:37;;;;;;;17.73;10.38;;;8.70;99.90;;;;;;5061018;28;20400;-77
2022/10/12 08:16:04;;;;;;;15.80;10.13;;;8.70;99.90;;;;;;5047388;28;20044;-76
2022/10/12 08:18:30;;;;;;;13.38;10.38;;;8.70;99.90;;;;;;5045057;28;20791;-77
2022/10/12 08:20:56;;;;;;;17.92;9.50;;;8.70;99.90;;;;;;5045117;28;20502;-76
2022/10/12 08:23:22;;;;;;;17.38;9.90;;;8.70;99.90;;;;;;5061944;28;20051;-76
2022/10/12 08:25:52;;;;;;;14.63;9.32;;;8.80;99.90;;;;;;5062781;28;20040;-76
2022/10/12 08:28:18;;;;;;;18.98;10.60;;;8.80;99.90;;;;;;5047072;28;20051;-77
2022/10/12 08:30:44;;;;;;;15.38;9.90;;;8.80;99.90;;;;;;5064807;28;20403;-76
2022/10/12 08:33:10;;;;;;;14.63;9.15;;;8.90;99.90;;;;;;5060223;28;20735;-76
2022/10/12 08:35:40;;;;;;;18.92;10.40;;;8.90;99.90;;;;;;5042406;28;20068;-76
2022/10/12 08:38:07;;;;;;;16.52;9.02;;;9.00;99.90;;;;;;5061164;28;20142;-76
2022/10/12 08:40:41;;;;;;;18.65;9.35;;;9.10;99.90;;;;;;5045492;28;20137;-76
2022/10/12 08:43:32;;;;;;;16.52;9.30;;;9.10;99.90;;;;;;5061960;28;20137;-78
2022/10/12 08:46:01;;;;;;;15.73;9.13;;;9.20;99.90;;;;;;5062369;28;20522;-77
2022/10/12 08:48:31;;;;;;;16.45;9.10;;;9.20;99.90;;;;;;5045996;28;20514;-76
2022/10/12 08:51:05;;;;;;;16.48;8.85;;;9.20;99.90;;;;;;5080462;28;20098;-77
2022/10/12 08:53:43;;;;;;;17.17;9.32;;;9.30;99.90;;;;;;5045669;28;20044;-77
2022/10/12 08:56:08;;;;;;;14.35;8.95;;;9.30;99.90;;;;;;5048741;28;20050;-77
2022/10/12 08:58:38;;;;;;;13.93;8.60;;;9.30;99.90;;;;;;5058568;28;20345;-77
2022/10/12 09:01:26;;;;;;;17.00;8.93;;;9.30;99.90;;;;;;5015624;28;20045;-77
2022/10/12 09:04:11;;;;;;;17.83;9.55;;;9.30;99.90;;;;;;5059360;28;20048;-77
2022/10/12 09:07:00;;;;;;;15.50;9.00;;;9.40;99.90;;;;;;5073028;28;20052;-77
2022/10/12 09:09:44;;;;;;;15.98;9.30;;;9.40;99.90;;;;;;5059334;28;20055;-78
2022/10/12 09:12:35;;;;;;;13.25;8.35;;;9.50;99.90;;;;;;5044144;28;20517;-78
2022/10/12 09:15:09;;;;;;;16.25;8.75;;;9.60;99.90;;;;;;5056806;28;20087;-78
2022/10/12 09:17:40;;;;;;;13.40;7.82;;;9.80;99.90;;;;;;5047002;28;20411;-78
2022/10/12 09:20:16;;;;;;;16.38;8.50;;;10.00;99.90;;;;;;5041093;28;20033;-78
2022/10/12 09:22:46;;;;;;;15.52;8.02;;;10.00;99.90;;;;;;5047102;28;20486;-78
2022/10/12 09:25:13;;;;;;;13.35;7.15;;;10.20;99.90;;;;;;5058956;28;20713;-78
2022/10/12 09:27:41;;;;;;;17.55;8.07;;;10.30;99.90;;;;;;5062551;28;20098;-78
2022/10/12 09:30:13;;;;;;;12.13;6.68;;;10.50;99.90;;;;;;5063221;28;20379;-79
2022/10/12 09:32:48;;;;;;;15.52;7.10;;;10.60;99.90;;;;;;5045395;28;20041;-78
2022/10/12 09:35:14;;;;;;;16.10;7.35;;;10.60;99.90;;;;;;5045006;28;20400;-71
2022/10/12 09:37:40;;;;;;;13.45;7.50;;;10.70;99.90;;;;;;5058965;28;20036;-71
2022/10/12 09:40:20;;;;;;;15.70;7.03;;;10.90;99.90;;;;;;5045166;28;20036;-71
2022/10/12 09:42:46;;;;;;;14.13;7.40;;;11.00;99.90;;;;;;5060554;28;20044;-72
2022/10/12 09:45:20;;;;;;;13.02;6.53;;;11.00;99.90;;;;;;5062002;28;20045;-72
2022/10/12 09:48:09;;;;;;;12.60;6.68;;;11.10;99.90;;;;;;5040969;28;20044;-72
2022/10/12 09:50:57;;;;;;;15.35;7.15;;;11.20;99.90;;;;;;5056255;28;20503;-72
2022/10/12 09:53:29;;;;;;;12.95;6.68;;;11.30;99.90;;;;;;5058307;28;20056;-72
2022/10/12 09:56:08;;;;;;;11.15;6.35;;;11.40;99.90;;;;;;5058894;28;20048;-72
2022/10/12 09:58:53;;;;;;;11.57;6.13;;;11.50;99.90;;;;;;5059976;28;20052;-72
2022/10/12 10:01:22;;;;;;;11.77;6.43;;;11.50;99.90;;;;;;5066621;28;20584;-77
2022/10/12 10:03:50;;;;;;;12.50;6.80;;;11.50;99.90;;;;;;5055223;28;20048;-78
2022/10/12 10:06:23;;;;;;;12.32;5.50;;;11.60;99.90;;;;;;5060575;28;20515;-78
2022/10/12 10:08:49;;;;;;;13.02;6.40;;;11.60;99.90;;;;;;5057591;28;20146;-79
2022/10/12 10:11:21;;;;;;;15.57;5.90;;;11.70;99.90;;;;;;5061082;28;20075;-77
2022/10/12 10:13:53;;;;;;;12.40;6.35;;;11.70;99.90;;;;;;5042556;28;20040;-77
2022/10/12 10:16:22;;;;;;;14.98;6.18;;;11.80;99.90;;;;;;5040524;28;20218;-77
2022/10/12 10:18:54;;;;;;;13.00;6.15;;;11.80;99.90;;;;;;5074403;28;20488;-78
2022/10/12 10:21:39;;;;;;;12.20;5.50;;;11.90;99.90;;;;;;5058589;28;20068;-78
2022/10/12 10:24:06;;;;;;;11.65;4.95;;;12.00;99.90;;;;;;5059906;28;20490;-77
2022/10/12 10:27:00;;;;;;;11.13;4.90;;;12.10;99.90;;;;;;5041747;28;20514;-78
2022/10/12 10:29:38;;;;;;;12.15;4.82;;;12.30;99.90;;;;;;5058515;28;20131;-77
2022/10/12 10:32:27;;;;;;;14.45;4.60;;;12.40;99.90;;;;;;5063846;28;20060;-78
2022/10/12 10:35:11;;;;;;;13.88;5.30;;;12.50;99.90;;;;;;5063502;28;20035;-78
2022/10/12 10:37:57;;;;;;;11.32;4.28;;;12.60;99.90;;;;;;5056398;28;20043;-77
2022/10/12 10:40:41;;;;;;;12.98;4.60;;;12.60;99.90;;;;;;5059137;28;20106;-77
2022/10/12 10:43:29;;;;;;;11.43;4.25;;;12.70;99.90;;;;;;5060197;28;20079;-77
2022/10/12 10:46:15;;;;;;;12.18;4.53;;;12.80;99.90;;;;;;5061190;28;20046;-78
2022/10/12 10:49:00;;;;;;;11.07;4.47;;;12.90;99.90;;;;;;5040997;28;20041;-77
2022/10/12 10:51:50;;;;;;;8.65;3.55;;;12.90;99.90;;;;;;5047396;28;20052;-76
2022/10/12 10:54:22;;;;;;;12.27;4.68;;;12.90;99.90;;;;;;5058893;28;20061;-77
2022/10/12 10:57:22;;;;;;;14.00;5.05;;;13.00;99.90;;;;;;5045347;28;20090;-76
2022/10/12 10:59:56;;;;;;;13.63;4.00;;;13.10;99.90;;;;;;5045416;28;20102;-76
2022/10/12 11:02:44;;;;;;;11.02;4.10;;;13.20;99.90;;;;;;5043672;28;20454;-76
2022/10/12 11:05:24;;;;;;;11.40;4.68;;;13.30;99.90;;;;;;5056654;28;20526;-76
2022/10/12 11:07:52;;;;;;;10.95;4.30;;;13.30;99.90;;;;;;5042704;28;20670;-77
2022/10/12 11:10:28;;;;;;;13.13;4.50;;;13.40;99.90;;;;;;5047235;28;20049;-78
2022/10/12 11:13:20;;;;;;;12.30;4.70;;;13.40;99.90;;;;;;5056613;28;20040;-77
2022/10/12 11:15:55;;;;;;;10.40;4.55;;;13.50;99.90;;;;;;5050752;28;20056;-78
2022/10/12 11:18:24;;;;;;;9.73;4.22;;;13.50;99.90;;;;;;5057718;28;20048;-77
2022/10/12 11:21:06;;;;;;;10.55;4.25;;;13.50;99.90;;;;;;5055290;28;20041;-78
2022/10/12 11:23:54;;;;;;;13.10;4.53;;;13.50;99.90;;;;;;5057522;28;20459;-78
2022/10/12 11:26:30;;;;;;;9.75;3.78;;;13.50;99.90;;;;;;5058461;28;20040;-78
2022/10/12 11:28:59;;;;;;;11.48;4.47;;;13.50;99.90;;;;;;5074321;28;20411;-78
2022/10/12 11:31:35;;;;;;;12.38;4.50;;;13.60;99.90;;;;;;5059011;28;20067;-78
2022/10/12 11:34:04;;;;;;;13.88;5.47;;;13.70;99.90;;;;;;5044014;28;20037;-78
2022/10/12 11:36:33;;;;;;;11.13;5.00;;;13.70;99.90;;;;;;5044536;28;20037;-77
2022/10/12 11:39:04;;;;;;;13.90;5.85;;;13.80;99.90;;;;;;5043798;28;20338;-77
2022/10/12 11:41:44;;;;;;;13.43;5.05;;;13.80;99.90;;;;;;5060755;28;20047;-78
2022/10/12 11:44:55;;;;;;;12.00;5.43;;;13.90;99.90;;;;;;5044918;28;20048;-78
2022/10/12 11:47:30;;;;;;;11.48;4.68;;;14.00;99.90;;;;;;5055184;28;20706;-77
2022/10/12 11:50:00;;;;;;;11.68;5.00;;;14.00;99.90;;;;;;5048255;28;20048;-77
2022/10/12 11:52:35;;;;;;;;;;;14.00;99.90;;;;;;5063711;28;20048;-77
2022/10/12 11:55:16;;;;;;;11.02;4.30;;;14.00;99.90;;;;;;5062259;28;19920;-78
2022/10/12 11:57:42;;;;;;;10.40;3.90;;;14.00;99.90;;;;;;5063949;28;20040;-77
2022/10/12 12:00:22;;;;;;;9.93;3.58;;;14.00;99.90;;;;;;5060032;28;20056;-77
2022/10/12 12:03:27;;;;;;;9.98;3.25;;;14.10;99.90;;;;;;5045752;28;20124;-77
2022/10/12 12:05:53;;;;;;;8.70;3.25;;;14.10;99.90;;;;;;5045631;28;20052;-77
2022/10/12 12:08:42;;;;;;;7.80;3.60;;;14.00;99.90;;;;;;5066570;28;20044;-78
2022/10/12 12:11:37;;;;;;;9.30;4.38;;;14.10;99.90;;;;;;5048919;28;20511;-77
2022/10/12 12:14:24;;;;;;;11.13;3.97;;;14.10;99.90;;;;;;5052647;28;20044;-77
2022/10/12 12:17:17;;;;;;;10.57;4.28;;;14.10;99.90;;;;;;5062792;28;20491;-78
2022/10/12 12:19:50;;;;;;;10.88;3.38;;;14.20;99.90;;;;;;5061235;28;20724;-79
2022/10/12 12:22:15;;;;;;;12.65;3.17;;;14.30;99.90;;;;;;5076405;28;20055;-76
2022/10/12 12:24:55;;;;;;;10.30;3.80;;;14.20;99.90;;;;;;5046842;28;20040;-78
2022/10/12 12:27:36;;;;;;;10.10;3.42;;;14.30;99.90;;;;;;5060815;28;20043;-77
2022/10/12 12:30:24;;;;;;;10.65;3.47;;;14.20;99.90;;;;;;5046221;28;20045;-77
2022/10/12 12:32:59;;;;;;;10.48;3.30;;;14.30;99.90;;;;;;5063321;28;20036;-76
2022/10/12 12:35:53;;;;;;;8.90;3.13;;;14.30;99.90;;;;;;5058001;28;20479;-77
2022/10/12 12:38:29;;;;;;;8.15;2.80;;;14.20;99.90;;;;;;5062073;28;20233;-78
2022/10/12 12:41:02;;;;;;;9.38;3.05;;;14.30;99.90;;;;;;5059597;28;20037;-78
2022/10/12 12:43:27;;;;;;;10.57;3.00;;;14.40;99.90;;;;;;5039895;28;20045;-78
2022/10/12 12:45:57;;;;;;;11.50;3.60;;;14.40;99.90;;;;;;5045033;28;20469;-77
2022/10/12 12:48:38;;;;;;;11.73;3.25;;;14.40;99.90;;;;;;5046638;28;20045;-77
2022/10/12 12:51:34;;;;;;;11.85;3.47;;;14.40;99.90;;;;;;5064940;28;20087;-79
2022/10/12 12:54:03;;;;;;;10.95;3.80;;;14.50;99.90;;;;;;5058742;28;20094;-78
2022/10/12 12:57:00;;;;;;;11.35;4.00;;;14.50;99.90;;;;;;5047051;28;20041;-78
2022/10/12 12:59:47;;;;;;;9.20;4.28;;;14.50;99.90;;;;;;5061362;28;20206;-78
2022/10/12 13:02:50;;;;;;;11.43;3.95;;;14.50;99.90;;;;;;5074810;28;20703;-77
2022/10/12 13:05:25;;;;;;;12.00;4.00;;;14.50;99.90;;;;;;5044082;28;20055;-78
2022/10/12 13:08:12;;;;;;;14.13;4.57;;;14.60;99.90;;;;;;5062468;28;20083;-71